sensor_id;sensor_type;location;lat;lon;timestamp;P1;durP1;ratioP1;P2;durP2;ratioP2
18142;SDS011;9197;50.930;3.140;2022-10-15T00:00:20;18.03;;;16.13;;
18142;SDS011;9197;50.930;3.140;2022-10-15T00:02:49;16.73;;;15.10;;
18142;SDS011;9197;50.930;3.140;2022-10-15T00:05:17;16.67;;;14.10;;
18142;SDS011;9197;50.930;3.140;2022-10-15T00:10:37;12.87;;;11.63;;
18142;SDS011;9197;50.930;3.140;2022-10-15T00:13:05;13.40;;;12.00;;
18142;SDS011;9197;50.930;3.140;2022-10-15T00:15:34;12.20;;;11.10;;
18142;SDS011;9197;50.930;3.140;2022-10-15T00:18:02;11.57;;;10.47;;
18142;SDS011;9197;50.930;3.140;2022-10-15T00:20:29;12.97;;;10.37;;
18142;SDS011;9197;50.930;3.140;2022-10-15T00:22:58;13.17;;;11.23;;
18142;SDS011;9197;50.930;3.140;2022-10-15T00:25:26;11.07;;;10.00;;
18142;SDS011;9197;50.930;3.140;2022-10-15T00:27:54;10.50;;;9.50;;
18142;SDS011;9197;50.930;3.140;2022-10-15T00:30:22;11.40;;;10.30;;
18142;SDS011;9197;50.930;3.140;2022-10-15T00:32:49;13.13;;;10.70;;
18142;SDS011;9197;50.930;3.140;2022-10-15T00:35:18;11.70;;;10.50;;
18142;SDS011;9197;50.930;3.140;2022-10-15T00:37:45;13.23;;;11.83;;
18142;SDS011;9197;50.930;3.140;2022-10-15T00:40:14;15.20;;;13.53;;
18142;SDS011;9197;50.930;3.140;2022-10-15T00:42:41;14.20;;;12.73;;
18142;SDS011;9197;50.930;3.140;2022-10-15T00:45:11;18.83;;;14.10;;
18142;SDS011;9197;50.930;3.140;2022-10-15T00:47:39;14.63;;;13.33;;
18142;SDS011;9197;50.930;3.140;2022-10-15T00:50:08;17.37;;;15.57;;
18142;SDS011;9197;50.930;3.140;2022-10-15T00:52:38;19.33;;;15.87;;
18142;SDS011;9197;50.930;3.140;2022-10-15T00:55:07;16.37;;;14.47;;
18142;SDS011;9197;50.930;3.140;2022-10-15T00:57:38;18.00;;;15.20;;
18142;SDS011;9197;50.930;3.140;2022-10-15T01:00:06;20.77;;;16.17;;
18142;SDS011;9197;50.930;3.140;2022-10-15T01:02:36;21.03;;;17.13;;
18142;SDS011;9197;50.930;3.140;2022-10-15T01:05:03;18.60;;;16.33;;
18142;SDS011;9197;50.930;3.140;2022-10-15T01:07:32;21.97;;;16.80;;
18142;SDS011;9197;50.930;3.140;2022-10-15T01:09:59;22.63;;;18.60;;
18142;SDS011;9197;50.930;3.140;2022-10-15T01:12:30;23.07;;;17.80;;
18142;SDS011;9197;50.930;3.140;2022-10-15T01:15:01;21.80;;;18.27;;
18142;SDS011;9197;50.930;3.140;2022-10-15T01:17:32;19.73;;;17.63;;
18142;SDS011;9197;50.930;3.140;2022-10-15T01:20:08;19.53;;;17.07;;
18142;SDS011;9197;50.930;3.140;2022-10-15T01:22:44;20.47;;;18.23;;
18142;SDS011;9197;50.930;3.140;2022-10-15T01:25:17;21.53;;;17.63;;
18142;SDS011;9197;50.930;3.140;2022-10-15T01:27:50;24.30;;;18.50;;
18142;SDS011;9197;50.930;3.140;2022-10-15T01:30:24;20.33;;;18.27;;
18142;SDS011;9197;50.930;3.140;2022-10-15T01:35:42;25.40;;;21.57;;
18142;SDS011;9197;50.930;3.140;2022-10-15T01:38:16;20.33;;;18.13;;
18142;SDS011;9197;50.930;3.140;2022-10-15T01:40:46;24.33;;;20.70;;
18142;SDS011;9197;50.930;3.140;2022-10-15T01:43:20;24.17;;;20.67;;
18142;SDS011;9197;50.930;3.140;2022-10-15T01:45:50;22.47;;;20.27;;
18142;SDS011;9197;50.930;3.140;2022-10-15T01:48:18;22.73;;;20.33;;
18142;SDS011;9197;50.930;3.140;2022-10-15T01:50:47;27.53;;;20.87;;
18142;SDS011;9197;50.930;3.140;2022-10-15T01:53:17;27.70;;;22.10;;
18142;SDS011;9197;50.930;3.140;2022-10-15T01:55:50;22.97;;;19.57;;
18142;SDS011;9197;50.930;3.140;2022-10-15T01:58:20;24.97;;;20.70;;
18142;SDS011;9197;50.930;3.140;2022-10-15T02:00:47;22.37;;;20.00;;
18142;SDS011;9197;50.930;3.140;2022-10-15T02:03:17;28.87;;;19.43;;
18142;SDS011;9197;50.930;3.140;2022-10-15T02:05:45;21.80;;;19.27;;
18142;SDS011;9197;50.930;3.140;2022-10-15T02:08:15;25.63;;;20.20;;
18142;SDS011;9197;50.930;3.140;2022-10-15T02:10:49;23.20;;;18.57;;
18142;SDS011;9197;50.930;3.140;2022-10-15T02:13:23;22.00;;;19.57;;
18142;SDS011;9197;50.930;3.140;2022-10-15T02:15:52;23.07;;;19.33;;
18142;SDS011;9197;50.930;3.140;2022-10-15T02:18:26;20.60;;;17.67;;
18142;SDS011;9197;50.930;3.140;2022-10-15T02:20:56;21.07;;;18.87;;
18142;SDS011;9197;50.930;3.140;2022-10-15T02:23:24;22.00;;;16.67;;
18142;SDS011;9197;50.930;3.140;2022-10-15T02:25:53;21.97;;;18.43;;
18142;SDS011;9197;50.930;3.140;2022-10-15T02:28:21;20.33;;;16.90;;
18142;SDS011;9197;50.930;3.140;2022-10-15T02:30:50;20.53;;;16.37;;
18142;SDS011;9197;50.930;3.140;2022-10-15T02:33:18;22.83;;;17.67;;
18142;SDS011;9197;50.930;3.140;2022-10-15T02:35:48;17.57;;;15.67;;
18142;SDS011;9197;50.930;3.140;2022-10-15T02:38:17;19.27;;;17.03;;
18142;SDS011;9197;50.930;3.140;2022-10-15T02:40:45;19.37;;;17.30;;
18142;SDS011;9197;50.930;3.140;2022-10-15T02:43:14;19.30;;;17.13;;
18142;SDS011;9197;50.930;3.140;2022-10-15T02:45:41;22.03;;;17.23;;
18142;SDS011;9197;50.930;3.140;2022-10-15T02:48:09;20.50;;;18.30;;
18142;SDS011;9197;50.930;3.140;2022-10-15T02:50:36;21.97;;;17.90;;
18142;SDS011;9197;50.930;3.140;2022-10-15T02:53:05;20.33;;;17.23;;
18142;SDS011;9197;50.930;3.140;2022-10-15T02:55:32;20.37;;;17.03;;
18142;SDS011;9197;50.930;3.140;2022-10-15T02:57:59;20.57;;;17.90;;
18142;SDS011;9197;50.930;3.140;2022-10-15T03:00:26;18.43;;;16.53;;
18142;SDS011;9197;50.930;3.140;2022-10-15T03:02:56;19.07;;;15.97;;
18142;SDS011;9197;50.930;3.140;2022-10-15T03:05:23;20.30;;;17.17;;
18142;SDS011;9197;50.930;3.140;2022-10-15T03:07:51;19.47;;;16.23;;
18142;SDS011;9197;50.930;3.140;2022-10-15T03:10:19;18.73;;;16.03;;
18142;SDS011;9197;50.930;3.140;2022-10-15T03:12:46;20.20;;;17.20;;
18142;SDS011;9197;50.930;3.140;2022-10-15T03:15:14;22.47;;;17.03;;
18142;SDS011;9197;50.930;3.140;2022-10-15T03:17:41;18.37;;;15.70;;
18142;SDS011;9197;50.930;3.140;2022-10-15T03:20:08;19.40;;;15.57;;
18142;SDS011;9197;50.930;3.140;2022-10-15T03:22:36;21.87;;;15.60;;
18142;SDS011;9197;50.930;3.140;2022-10-15T03:25:04;18.47;;;16.07;;
18142;SDS011;9197;50.930;3.140;2022-10-15T03:27:33;18.00;;;15.83;;
18142;SDS011;9197;50.930;3.140;2022-10-15T03:30:00;18.27;;;15.97;;
18142;SDS011;9197;50.930;3.140;2022-10-15T03:32:27;18.97;;;16.07;;
18142;SDS011;9197;50.930;3.140;2022-10-15T03:34:56;18.33;;;14.97;;
18142;SDS011;9197;50.930;3.140;2022-10-15T03:37:23;18.47;;;15.67;;
18142;SDS011;9197;50.930;3.140;2022-10-15T03:39:51;17.97;;;15.93;;
18142;SDS011;9197;50.930;3.140;2022-10-15T03:42:19;16.40;;;14.70;;
18142;SDS011;9197;50.930;3.140;2022-10-15T03:44:47;15.87;;;14.27;;
18142;SDS011;9197;50.930;3.140;2022-10-15T03:47:15;16.20;;;14.47;;
18142;SDS011;9197;50.930;3.140;2022-10-15T03:49:42;23.17;;;16.40;;
18142;SDS011;9197;50.930;3.140;2022-10-15T03:52:10;17.93;;;16.03;;
18142;SDS011;9197;50.930;3.140;2022-10-15T03:54:37;22.77;;;18.37;;
18142;SDS011;9197;50.930;3.140;2022-10-15T03:57:05;21.90;;;19.43;;
18142;SDS011;9197;50.930;3.140;2022-10-15T03:59:32;21.93;;;19.23;;
18142;SDS011;9197;50.930;3.140;2022-10-15T04:02:00;21.83;;;19.63;;
18142;SDS011;9197;50.930;3.140;2022-10-15T04:04:28;20.97;;;18.70;;
18142;SDS011;9197;50.930;3.140;2022-10-15T04:06:55;20.43;;;18.37;;
18142;SDS011;9197;50.930;3.140;2022-10-15T04:09:22;18.87;;;16.93;;
18142;SDS011;9197;50.930;3.140;2022-10-15T04:11:49;18.47;;;15.73;;
18142;SDS011;9197;50.930;3.140;2022-10-15T04:14:17;20.13;;;17.97;;
18142;SDS011;9197;50.930;3.140;2022-10-15T04:16:44;17.67;;;15.80;;
18142;SDS011;9197;50.930;3.140;2022-10-15T04:19:13;20.83;;;17.83;;
18142;SDS011;9197;50.930;3.140;2022-10-15T04:21:42;19.73;;;17.53;;
18142;SDS011;9197;50.930;3.140;2022-10-15T04:24:10;20.43;;;17.97;;
18142;SDS011;9197;50.930;3.140;2022-10-15T04:26:37;21.23;;;18.57;;
18142;SDS011;9197;50.930;3.140;2022-10-15T04:29:04;19.30;;;17.27;;
18142;SDS011;9197;50.930;3.140;2022-10-15T04:31:32;19.30;;;17.30;;
18142;SDS011;9197;50.930;3.140;2022-10-15T04:33:59;21.30;;;18.80;;
18142;SDS011;9197;50.930;3.140;2022-10-15T04:36:29;18.77;;;16.97;;
18142;SDS011;9197;50.930;3.140;2022-10-15T04:38:56;19.40;;;16.17;;
18142;SDS011;9197;50.930;3.140;2022-10-15T04:41:24;17.23;;;15.43;;
18142;SDS011;9197;50.930;3.140;2022-10-15T04:43:51;16.40;;;14.10;;
18142;SDS011;9197;50.930;3.140;2022-10-15T04:46:18;15.33;;;13.03;;
18142;SDS011;9197;50.930;3.140;2022-10-15T04:48:47;15.63;;;13.17;;
18142;SDS011;9197;50.930;3.140;2022-10-15T04:51:17;16.80;;;13.53;;
18142;SDS011;9197;50.930;3.140;2022-10-15T04:53:46;14.57;;;12.60;;
18142;SDS011;9197;50.930;3.140;2022-10-15T04:56:14;16.97;;;13.53;;
18142;SDS011;9197;50.930;3.140;2022-10-15T04:58:42;14.10;;;12.20;;
18142;SDS011;9197;50.930;3.140;2022-10-15T05:01:11;16.23;;;13.63;;
18142;SDS011;9197;50.930;3.140;2022-10-15T05:03:38;16.00;;;12.87;;
18142;SDS011;9197;50.930;3.140;2022-10-15T05:06:06;16.63;;;12.90;;
18142;SDS011;9197;50.930;3.140;2022-10-15T05:08:34;16.63;;;13.20;;
18142;SDS011;9197;50.930;3.140;2022-10-15T05:11:06;16.27;;;14.17;;
18142;SDS011;9197;50.930;3.140;2022-10-15T05:13:35;16.73;;;12.37;;
18142;SDS011;9197;50.930;3.140;2022-10-15T05:16:09;16.20;;;14.40;;
18142;SDS011;9197;50.930;3.140;2022-10-15T05:18:37;17.07;;;13.00;;
18142;SDS011;9197;50.930;3.140;2022-10-15T05:21:05;14.93;;;13.00;;
18142;SDS011;9197;50.930;3.140;2022-10-15T05:23:32;16.10;;;12.67;;
18142;SDS011;9197;50.930;3.140;2022-10-15T05:26:01;17.67;;;12.57;;
18142;SDS011;9197;50.930;3.140;2022-10-15T05:28:33;16.90;;;13.10;;
18142;SDS011;9197;50.930;3.140;2022-10-15T05:31:04;15.23;;;12.63;;
18142;SDS011;9197;50.930;3.140;2022-10-15T05:33:32;17.17;;;13.90;;
18142;SDS011;9197;50.930;3.140;2022-10-15T05:36:06;17.03;;;12.70;;
18142;SDS011;9197;50.930;3.140;2022-10-15T05:38:34;14.50;;;12.90;;
18142;SDS011;9197;50.930;3.140;2022-10-15T05:41:01;17.23;;;13.17;;
18142;SDS011;9197;50.930;3.140;2022-10-15T05:43:29;17.70;;;13.20;;
18142;SDS011;9197;50.930;3.140;2022-10-15T05:45:57;17.83;;;13.47;;
18142;SDS011;9197;50.930;3.140;2022-10-15T05:48:24;17.83;;;13.83;;
18142;SDS011;9197;50.930;3.140;2022-10-15T05:50:52;19.73;;;14.07;;
18142;SDS011;9197;50.930;3.140;2022-10-15T05:53:19;17.70;;;13.20;;
18142;SDS011;9197;50.930;3.140;2022-10-15T05:55:46;20.97;;;13.70;;
18142;SDS011;9197;50.930;3.140;2022-10-15T05:58:13;18.07;;;13.37;;
18142;SDS011;9197;50.930;3.140;2022-10-15T06:00:43;16.77;;;14.63;;
18142;SDS011;9197;50.930;3.140;2022-10-15T06:03:12;20.30;;;14.83;;
18142;SDS011;9197;50.930;3.140;2022-10-15T06:05:40;19.47;;;14.40;;
18142;SDS011;9197;50.930;3.140;2022-10-15T06:08:07;20.03;;;15.20;;
18142;SDS011;9197;50.930;3.140;2022-10-15T06:10:34;21.37;;;16.10;;
18142;SDS011;9197;50.930;3.140;2022-10-15T06:13:02;17.37;;;15.50;;
18142;SDS011;9197;50.930;3.140;2022-10-15T06:15:30;24.40;;;16.33;;
18142;SDS011;9197;50.930;3.140;2022-10-15T06:17:57;21.80;;;16.43;;
18142;SDS011;9197;50.930;3.140;2022-10-15T06:20:26;26.13;;;18.40;;
18142;SDS011;9197;50.930;3.140;2022-10-15T06:22:55;24.87;;;19.53;;
18142;SDS011;9197;50.930;3.140;2022-10-15T06:25:23;24.87;;;19.37;;
18142;SDS011;9197;50.930;3.140;2022-10-15T06:27:51;28.30;;;19.63;;
18142;SDS011;9197;50.930;3.140;2022-10-15T06:30:18;25.97;;;19.57;;
18142;SDS011;9197;50.930;3.140;2022-10-15T06:32:46;31.27;;;20.20;;
18142;SDS011;9197;50.930;3.140;2022-10-15T06:35:13;26.77;;;19.37;;
18142;SDS011;9197;50.930;3.140;2022-10-15T06:37:42;30.67;;;21.43;;
18142;SDS011;9197;50.930;3.140;2022-10-15T06:40:10;29.37;;;21.43;;
18142;SDS011;9197;50.930;3.140;2022-10-15T06:42:37;32.47;;;21.60;;
18142;SDS011;9197;50.930;3.140;2022-10-15T06:45:05;37.07;;;21.67;;
18142;SDS011;9197;50.930;3.140;2022-10-15T06:47:34;32.23;;;20.97;;
18142;SDS011;9197;50.930;3.140;2022-10-15T06:50:02;31.40;;;21.90;;
18142;SDS011;9197;50.930;3.140;2022-10-15T06:52:35;34.33;;;22.13;;
18142;SDS011;9197;50.930;3.140;2022-10-15T06:55:06;33.23;;;21.40;;
18142;SDS011;9197;50.930;3.140;2022-10-15T06:57:34;33.73;;;21.77;;
18142;SDS011;9197;50.930;3.140;2022-10-15T07:00:01;32.30;;;20.07;;
18142;SDS011;9197;50.930;3.140;2022-10-15T07:02:29;34.87;;;19.93;;
18142;SDS011;9197;50.930;3.140;2022-10-15T07:04:56;37.70;;;22.00;;
18142;SDS011;9197;50.930;3.140;2022-10-15T07:07:23;31.53;;;19.17;;
18142;SDS011;9197;50.930;3.140;2022-10-15T07:09:51;34.50;;;19.70;;
18142;SDS011;9197;50.930;3.140;2022-10-15T07:12:20;33.53;;;20.07;;
18142;SDS011;9197;50.930;3.140;2022-10-15T07:14:48;33.57;;;19.60;;
18142;SDS011;9197;50.930;3.140;2022-10-15T07:17:19;29.63;;;19.17;;
18142;SDS011;9197;50.930;3.140;2022-10-15T07:19:46;1.50;;;1.40;;
18142;SDS011;9197;50.930;3.140;2022-10-15T07:22:16;0.30;;;0.30;;
18142;SDS011;9197;50.930;3.140;2022-10-15T07:24:44;0.50;;;0.43;;
18142;SDS011;9197;50.930;3.140;2022-10-15T07:27:11;0.80;;;0.80;;
18142;SDS011;9197;50.930;3.140;2022-10-15T07:29:43;0.63;;;0.63;;
18142;SDS011;9197;50.930;3.140;2022-10-15T07:32:21;1.23;;;1.23;;
18142;SDS011;9197;50.930;3.140;2022-10-15T07:34:49;0.20;;;0.20;;
18142;SDS011;9197;50.930;3.140;2022-10-15T07:37:16;1.07;;;1.07;;
18142;SDS011;9197;50.930;3.140;2022-10-15T07:39:43;4.90;;;1.80;;
18142;SDS011;9197;50.930;3.140;2022-10-15T07:42:11;0.87;;;0.87;;
18142;SDS011;9197;50.930;3.140;2022-10-15T07:44:50;0.97;;;0.97;;
18142;SDS011;9197;50.930;3.140;2022-10-15T07:47:17;0.97;;;0.97;;
18142;SDS011;9197;50.930;3.140;2022-10-15T07:49:45;2.23;;;2.13;;
18142;SDS011;9197;50.930;3.140;2022-10-15T07:52:13;2.70;;;1.13;;
18142;SDS011;9197;50.930;3.140;2022-10-15T07:54:40;0.80;;;0.80;;
18142;SDS011;9197;50.930;3.140;2022-10-15T07:57:09;0.77;;;0.77;;
18142;SDS011;9197;50.930;3.140;2022-10-15T07:59:39;0.57;;;0.57;;
18142;SDS011;9197;50.930;3.140;2022-10-15T08:02:10;0.93;;;0.93;;
18142;SDS011;9197;50.930;3.140;2022-10-15T08:04:40;0.83;;;0.83;;
18142;SDS011;9197;50.930;3.140;2022-10-15T08:07:11;0.50;;;0.50;;
18142;SDS011;9197;50.930;3.140;2022-10-15T08:09:38;0.30;;;0.30;;
18142;SDS011;9197;50.930;3.140;2022-10-15T08:12:05;1.73;;;1.63;;
18142;SDS011;9197;50.930;3.140;2022-10-15T08:14:33;0.63;;;0.63;;
18142;SDS011;9197;50.930;3.140;2022-10-15T08:17:00;0.13;;;0.13;;
18142;SDS011;9197;50.930;3.140;2022-10-15T08:19:29;1.57;;;1.47;;
18142;SDS011;9197;50.930;3.140;2022-10-15T08:21:56;3.77;;;1.13;;
18142;SDS011;9197;50.930;3.140;2022-10-15T08:24:24;1.17;;;0.90;;
18142;SDS011;9197;50.930;3.140;2022-10-15T08:26:51;0.50;;;0.37;;
18142;SDS011;9197;50.930;3.140;2022-10-15T08:29:21;1.27;;;1.17;;
18142;SDS011;9197;50.930;3.140;2022-10-15T08:31:51;1.80;;;0.50;;
18142;SDS011;9197;50.930;3.140;2022-10-15T08:34:30;0.00;;;0.00;;
18142;SDS011;9197;50.930;3.140;2022-10-15T08:36:57;0.27;;;0.27;;
18142;SDS011;9197;50.930;3.140;2022-10-15T08:39:25;0.10;;;0.10;;
18142;SDS011;9197;50.930;3.140;2022-10-15T08:41:54;0.50;;;0.50;;
18142;SDS011;9197;50.930;3.140;2022-10-15T08:44:24;0.07;;;0.07;;
18142;SDS011;9197;50.930;3.140;2022-10-15T08:46:53;0.33;;;0.33;;
18142;SDS011;9197;50.930;3.140;2022-10-15T08:49:25;0.63;;;0.63;;
18142;SDS011;9197;50.930;3.140;2022-10-15T08:51:56;1.13;;;0.97;;
18142;SDS011;9197;50.930;3.140;2022-10-15T08:54:27;0.00;;;0.00;;
18142;SDS011;9197;50.930;3.140;2022-10-15T08:57:04;0.40;;;0.40;;
18142;SDS011;9197;50.930;3.140;2022-10-15T08:59:34;0.00;;;0.00;;
18142;SDS011;9197;50.930;3.140;2022-10-15T09:02:03;0.40;;;0.40;;
18142;SDS011;9197;50.930;3.140;2022-10-15T09:04:35;0.33;;;0.33;;
18142;SDS011;9197;50.930;3.140;2022-10-15T09:07:07;0.30;;;0.30;;
18142;SDS011;9197;50.930;3.140;2022-10-15T09:09:36;0.20;;;0.20;;
18142;SDS011;9197;50.930;3.140;2022-10-15T09:12:12;0.10;;;0.10;;
18142;SDS011;9197;50.930;3.140;2022-10-15T09:14:45;0.10;;;0.10;;
18142;SDS011;9197;50.930;3.140;2022-10-15T09:17:13;0.20;;;0.20;;
18142;SDS011;9197;50.930;3.140;2022-10-15T09:19:42;0.00;;;0.00;;
18142;SDS011;9197;50.930;3.140;2022-10-15T09:22:13;0.97;;;0.53;;
18142;SDS011;9197;50.930;3.140;2022-10-15T09:24:41;0.07;;;0.07;;
18142;SDS011;9197;50.930;3.140;2022-10-15T09:27:08;0.00;;;0.00;;
18142;SDS011;9197;50.930;3.140;2022-10-15T09:29:38;0.07;;;0.07;;
18142;SDS011;9197;50.930;3.140;2022-10-15T09:32:10;0.33;;;0.33;;
18142;SDS011;9197;50.930;3.140;2022-10-15T09:34:40;0.77;;;0.77;;
18142;SDS011;9197;50.930;3.140;2022-10-15T09:37:11;0.10;;;0.10;;
18142;SDS011;9197;50.930;3.140;2022-10-15T09:39:45;0.13;;;0.13;;
18142;SDS011;9197;50.930;3.140;2022-10-15T09:42:19;0.00;;;0.00;;
18142;SDS011;9197;50.930;3.140;2022-10-15T09:44:50;0.00;;;0.00;;
18142;SDS011;9197;50.930;3.140;2022-10-15T09:47:21;0.00;;;0.00;;
18142;SDS011;9197;50.930;3.140;2022-10-15T09:49:49;0.00;;;0.00;;
18142;SDS011;9197;50.930;3.140;2022-10-15T09:52:17;0.00;;;0.00;;
18142;SDS011;9197;50.930;3.140;2022-10-15T09:54:50;0.00;;;0.00;;
18142;SDS011;9197;50.930;3.140;2022-10-15T09:57:19;0.03;;;0.03;;
18142;SDS011;9197;50.930;3.140;2022-10-15T09:59:51;0.00;;;0.00;;
18142;SDS011;9197;50.930;3.140;2022-10-15T10:02:19;0.00;;;0.00;;
18142;SDS011;9197;50.930;3.140;2022-10-15T10:04:47;0.00;;;0.00;;
18142;SDS011;9197;50.930;3.140;2022-10-15T10:07:28;0.07;;;0.07;;
18142;SDS011;9197;50.930;3.140;2022-10-15T10:09:57;0.10;;;0.10;;
18142;SDS011;9197;50.930;3.140;2022-10-15T10:12:26;0.00;;;0.00;;
18142;SDS011;9197;50.930;3.140;2022-10-15T10:14:54;0.30;;;0.30;;
18142;SDS011;9197;50.930;3.140;2022-10-15T10:17:22;0.00;;;0.00;;
18142;SDS011;9197;50.930;3.140;2022-10-15T10:22:43;2.77;;;2.23;;
18142;SDS011;9197;50.930;3.140;2022-10-15T10:25:31;0.13;;;0.13;;
18142;SDS011;9197;50.930;3.140;2022-10-15T10:28:03;0.00;;;0.00;;
18142;SDS011;9197;50.930;3.140;2022-10-15T10:30:33;0.27;;;0.20;;
18142;SDS011;9197;50.930;3.140;2022-10-15T10:33:01;0.00;;;0.00;;
18142;SDS011;9197;50.930;3.140;2022-10-15T10:35:32;0.10;;;0.10;;
18142;SDS011;9197;50.930;3.140;2022-10-15T10:38:01;0.00;;;0.00;;
18142;SDS011;9197;50.930;3.140;2022-10-15T10:40:34;2.40;;;0.70;;
18142;SDS011;9197;50.930;3.140;2022-10-15T10:43:11;3.40;;;2.10;;
18142;SDS011;9197;50.930;3.140;2022-10-15T10:45:49;1.27;;;0.63;;
18142;SDS011;9197;50.930;3.140;2022-10-15T10:48:22;2.07;;;1.17;;
18142;SDS011;9197;50.930;3.140;2022-10-15T10:51:00;2.70;;;0.80;;
18142;SDS011;9197;50.930;3.140;2022-10-15T10:53:38;1.37;;;0.80;;
18142;SDS011;9197;50.930;3.140;2022-10-15T10:56:08;6.73;;;1.30;;
18142;SDS011;9197;50.930;3.140;2022-10-15T10:58:39;1.43;;;0.60;;
18142;SDS011;9197;50.930;3.140;2022-10-15T11:01:09;4.10;;;0.80;;
18142;SDS011;9197;50.930;3.140;2022-10-15T11:03:37;1.47;;;0.97;;
18142;SDS011;9197;50.930;3.140;2022-10-15T11:06:09;2.47;;;1.10;;
18142;SDS011;9197;50.930;3.140;2022-10-15T11:08:43;2.00;;;1.00;;
18142;SDS011;9197;50.930;3.140;2022-10-15T11:11:15;3.10;;;1.00;;
18142;SDS011;9197;50.930;3.140;2022-10-15T11:13:48;3.13;;;0.87;;
18142;SDS011;9197;50.930;3.140;2022-10-15T11:16:20;3.30;;;0.90;;
18142;SDS011;9197;50.930;3.140;2022-10-15T11:18:53;2.10;;;1.00;;
18142;SDS011;9197;50.930;3.140;2022-10-15T11:21:25;4.10;;;0.83;;
18142;SDS011;9197;50.930;3.140;2022-10-15T11:29:34;3.53;;;1.00;;
18142;SDS011;9197;50.930;3.140;2022-10-15T11:32:07;1.83;;;0.80;;
18142;SDS011;9197;50.930;3.140;2022-10-15T11:34:42;1.90;;;1.03;;
18142;SDS011;9197;50.930;3.140;2022-10-15T11:37:16;2.43;;;1.00;;
18142;SDS011;9197;50.930;3.140;2022-10-15T11:39:53;2.77;;;1.10;;
18142;SDS011;9197;50.930;3.140;2022-10-15T11:42:24;3.17;;;1.30;;
18142;SDS011;9197;50.930;3.140;2022-10-15T11:44:58;1.03;;;0.67;;
18142;SDS011;9197;50.930;3.140;2022-10-15T11:47:33;2.63;;;0.80;;
18142;SDS011;9197;50.930;3.140;2022-10-15T11:50:07;1.20;;;0.80;;
18142;SDS011;9197;50.930;3.140;2022-10-15T11:52:44;3.90;;;1.00;;
18142;SDS011;9197;50.930;3.140;2022-10-15T11:55:16;2.03;;;0.97;;
18142;SDS011;9197;50.930;3.140;2022-10-15T11:57:47;6.67;;;1.40;;
18142;SDS011;9197;50.930;3.140;2022-10-15T12:00:24;4.63;;;1.00;;
18142;SDS011;9197;50.930;3.140;2022-10-15T12:02:57;4.33;;;1.03;;
18142;SDS011;9197;50.930;3.140;2022-10-15T12:05:27;3.63;;;1.00;;
18142;SDS011;9197;50.930;3.140;2022-10-15T12:07:59;5.40;;;1.97;;
18142;SDS011;9197;50.930;3.140;2022-10-15T12:10:34;4.63;;;1.23;;
18142;SDS011;9197;50.930;3.140;2022-10-15T12:13:08;3.37;;;1.17;;
18142;SDS011;9197;50.930;3.140;2022-10-15T12:15:45;2.33;;;1.00;;
18142;SDS011;9197;50.930;3.140;2022-10-15T12:18:17;4.03;;;1.40;;
18142;SDS011;9197;50.930;3.140;2022-10-15T12:20:47;3.27;;;1.30;;
18142;SDS011;9197;50.930;3.140;2022-10-15T12:23:21;5.20;;;1.20;;
18142;SDS011;9197;50.930;3.140;2022-10-15T12:25:48;3.63;;;1.20;;
18142;SDS011;9197;50.930;3.140;2022-10-15T12:28:18;3.83;;;1.00;;
18142;SDS011;9197;50.930;3.140;2022-10-15T12:30:54;6.83;;;2.40;;
18142;SDS011;9197;50.930;3.140;2022-10-15T12:33:23;7.30;;;1.48;;
18142;SDS011;9197;50.930;3.140;2022-10-15T12:35:52;6.88;;;1.13;;
18142;SDS011;9197;50.930;3.140;2022-10-15T12:38:24;2.53;;;1.10;;
18142;SDS011;9197;50.930;3.140;2022-10-15T12:40:59;6.78;;;1.80;;
18142;SDS011;9197;50.930;3.140;2022-10-15T12:43:27;5.35;;;1.60;;
18142;SDS011;9197;50.930;3.140;2022-10-15T12:45:57;2.70;;;1.00;;
18142;SDS011;9197;50.930;3.140;2022-10-15T12:48:29;7.07;;;1.77;;
18142;SDS011;9197;50.930;3.140;2022-10-15T12:53:43;5.05;;;1.40;;
18142;SDS011;9197;50.930;3.140;2022-10-15T12:56:12;2.13;;;1.40;;
18142;SDS011;9197;50.930;3.140;2022-10-15T12:58:39;3.05;;;0.93;;
18142;SDS011;9197;50.930;3.140;2022-10-15T13:03:51;5.75;;;1.45;;
18142;SDS011;9197;50.930;3.140;2022-10-15T13:06:24;2.73;;;1.10;;
18142;SDS011;9197;50.930;3.140;2022-10-15T13:08:53;3.30;;;1.13;;
18142;SDS011;9197;50.930;3.140;2022-10-15T13:11:22;5.05;;;1.13;;
18142;SDS011;9197;50.930;3.140;2022-10-15T13:13:50;3.88;;;1.00;;
18142;SDS011;9197;50.930;3.140;2022-10-15T13:16:18;3.93;;;0.90;;
18142;SDS011;9197;50.930;3.140;2022-10-15T13:18:47;4.35;;;1.35;;
18142;SDS011;9197;50.930;3.140;2022-10-15T13:21:16;4.35;;;1.45;;
18142;SDS011;9197;50.930;3.140;2022-10-15T13:23:44;3.20;;;1.03;;
18142;SDS011;9197;50.930;3.140;2022-10-15T13:26:15;3.80;;;1.00;;
18142;SDS011;9197;50.930;3.140;2022-10-15T13:28:43;1.83;;;1.07;;
18142;SDS011;9197;50.930;3.140;2022-10-15T13:31:12;2.15;;;1.30;;
18142;SDS011;9197;50.930;3.140;2022-10-15T13:33:41;5.53;;;1.10;;
18142;SDS011;9197;50.930;3.140;2022-10-15T13:36:14;5.23;;;2.23;;
18142;SDS011;9197;50.930;3.140;2022-10-15T13:38:47;1.37;;;0.70;;
18142;SDS011;9197;50.930;3.140;2022-10-15T13:41:24;3.70;;;1.23;;
18142;SDS011;9197;50.930;3.140;2022-10-15T13:43:55;6.10;;;1.27;;
18142;SDS011;9197;50.930;3.140;2022-10-15T13:46:35;2.63;;;0.90;;
18142;SDS011;9197;50.930;3.140;2022-10-15T13:49:08;7.40;;;1.80;;
18142;SDS011;9197;50.930;3.140;2022-10-15T13:51:38;5.13;;;1.00;;
18142;SDS011;9197;50.930;3.140;2022-10-15T13:54:08;4.27;;;1.07;;
18142;SDS011;9197;50.930;3.140;2022-10-15T13:56:36;4.03;;;1.07;;
18142;SDS011;9197;50.930;3.140;2022-10-15T13:59:11;5.43;;;1.50;;
18142;SDS011;9197;50.930;3.140;2022-10-15T14:01:44;4.03;;;0.93;;
18142;SDS011;9197;50.930;3.140;2022-10-15T14:04:14;4.43;;;1.47;;
18142;SDS011;9197;50.930;3.140;2022-10-15T14:06:41;3.00;;;0.93;;
18142;SDS011;9197;50.930;3.140;2022-10-15T14:09:20;4.03;;;1.27;;
18142;SDS011;9197;50.930;3.140;2022-10-15T14:11:48;3.50;;;0.97;;
18142;SDS011;9197;50.930;3.140;2022-10-15T14:14:28;2.97;;;1.10;;
18142;SDS011;9197;50.930;3.140;2022-10-15T14:16:57;5.00;;;1.00;;
18142;SDS011;9197;50.930;3.140;2022-10-15T14:19:24;3.37;;;1.10;;
18142;SDS011;9197;50.930;3.140;2022-10-15T14:21:54;3.57;;;1.37;;
18142;SDS011;9197;50.930;3.140;2022-10-15T14:24:25;3.43;;;1.00;;
18142;SDS011;9197;50.930;3.140;2022-10-15T14:26:54;3.23;;;0.97;;
18142;SDS011;9197;50.930;3.140;2022-10-15T14:29:23;5.20;;;1.23;;
18142;SDS011;9197;50.930;3.140;2022-10-15T14:31:51;3.83;;;1.10;;
18142;SDS011;9197;50.930;3.140;2022-10-15T14:34:25;3.90;;;1.20;;
18142;SDS011;9197;50.930;3.140;2022-10-15T14:36:54;6.90;;;1.37;;
18142;SDS011;9197;50.930;3.140;2022-10-15T14:39:28;6.00;;;1.47;;
18142;SDS011;9197;50.930;3.140;2022-10-15T14:41:56;2.77;;;1.43;;
18142;SDS011;9197;50.930;3.140;2022-10-15T14:44:24;2.97;;;1.17;;
18142;SDS011;9197;50.930;3.140;2022-10-15T14:46:52;1.40;;;0.67;;
18142;SDS011;9197;50.930;3.140;2022-10-15T14:49:25;6.13;;;1.37;;
18142;SDS011;9197;50.930;3.140;2022-10-15T14:51:54;4.30;;;1.13;;
18142;SDS011;9197;50.930;3.140;2022-10-15T14:54:23;2.53;;;0.80;;
18142;SDS011;9197;50.930;3.140;2022-10-15T14:56:55;2.90;;;1.00;;
18142;SDS011;9197;50.930;3.140;2022-10-15T14:59:23;5.63;;;1.23;;
18142;SDS011;9197;50.930;3.140;2022-10-15T15:01:54;3.37;;;1.00;;
18142;SDS011;9197;50.930;3.140;2022-10-15T15:04:36;3.80;;;1.40;;
18142;SDS011;9197;50.930;3.140;2022-10-15T15:07:14;4.57;;;1.37;;
18142;SDS011;9197;50.930;3.140;2022-10-15T15:09:42;3.47;;;1.03;;
18142;SDS011;9197;50.930;3.140;2022-10-15T15:12:13;5.93;;;1.13;;
18142;SDS011;9197;50.930;3.140;2022-10-15T15:14:41;4.30;;;1.47;;
18142;SDS011;9197;50.930;3.140;2022-10-15T15:17:11;2.33;;;0.70;;
18142;SDS011;9197;50.930;3.140;2022-10-15T15:19:40;1.67;;;0.63;;
18142;SDS011;9197;50.930;3.140;2022-10-15T15:22:07;3.33;;;0.90;;